Time;durP1;ratioP1;P1;durP2;ratioP2;P2;SDS_P1;SDS_P2;PMS_P1;PMS_P2;Temp;Humidity;BMP_temperature;BMP_pressure;BME280_temperature;BME280_humidity;BME280_pressure;Samples;Min_cycle;Max_cycle;Signal;HPM_P1;HPM_P2
2024/01/01 00:01:37;;;;;;;;;;;23.20;99.90;;;;;;5097938;28;19951;-67
2024/01/01 00:04:04;;;;;;;;;;;23.20;99.90;;;;;;5114436;28;19908;-70
2024/01/01 00:06:31;;;;;;;;;;;23.30;99.90;;;;;;5114474;28;19911;-67
2024/01/01 00:08:57;;;;;;;;;;;23.40;99.90;;;;;;5114614;28;19908;-68
2024/01/01 00:11:24;;;;;;;;;;;23.40;99.90;;;;;;5114411;28;19918;-68
2024/01/01 00:13:50;;;;;;;;;;;23.50;99.90;;;;;;5113470;28;19952;-67
2024/01/01 00:16:17;;;;;;;;;;;23.50;99.90;;;;;;5102588;28;19916;-68
2024/01/01 00:18:44;;;;;;;;;;;23.50;99.90;;;;;;5093949;28;19970;-67
2024/01/01 00:21:11;;;;;;;;;;;23.50;99.90;;;;;;5096668;28;20371;-68
2024/01/01 00:23:37;;;;;;;;;;;23.40;99.90;;;;;;5093515;28;19915;-67
2024/01/01 00:26:05;;;;;;;;;;;23.40;99.90;;;;;;5103835;28;19955;-66
2024/01/01 00:28:31;;;;;;;;;;;23.50;99.90;;;;;;5114129;28;19915;-67
2024/01/01 00:30:58;;;;;;;;;;;23.40;99.90;;;;;;5114021;28;19958;-68
2024/01/01 00:33:25;;;;;;;;;;;23.50;99.90;;;;;;5113637;28;19947;-66
2024/01/01 00:35:51;;;;;;;;;;;23.50;99.90;;;;;;5114094;28;19947;-66
2024/01/01 00:38:18;;;;;;;;;;;23.50;99.90;;;;;;5113830;28;20380;-66
2024/01/01 00:40:44;;;;;;;;;;;23.60;99.90;;;;;;5113930;28;19960;-67
2024/01/01 00:43:11;;;;;;;;;;;23.70;99.90;;;;;;5095295;28;20012;-66
2024/01/01 00:45:37;;;;;;;;;;;23.60;99.90;;;;;;5104799;28;20002;-68
2024/01/01 00:48:04;;;;;;;;;;;23.90;99.90;;;;;;5113657;28;19942;-67
2024/01/01 00:50:31;;;;;;;;;;;24.10;99.90;;;;;;5113830;28;19959;-67
2024/01/01 00:52:57;;;;;;;;;;;24.30;99.90;;;;;;5113585;28;20040;-67
2024/01/01 00:55:24;;;;;;;;;;;24.50;99.90;;;;;;5113413;28;20253;-67
2024/01/01 00:57:51;;;;;;;;;;;24.40;99.90;;;;;;5113487;28;19922;-67
2024/01/01 01:00:21;;;;;;;;;;;24.40;99.90;;;;;;5112844;28;20270;-67
2024/01/01 01:02:48;;;;;;;;;;;24.50;99.90;;;;;;5113503;28;19908;-67
2024/01/01 01:05:14;;;;;;;;;;;24.30;99.90;;;;;;5113499;28;19994;-67
2024/01/01 01:07:41;;;;;;;;;;;24.20;99.90;;;;;;5113005;28;19962;-68
2024/01/01 01:10:08;;;;;;;;;;;24.00;99.90;;;;;;5113339;28;19950;-67
2024/01/01 01:12:34;;;;;;;;;;;23.90;99.90;;;;;;5113403;28;19908;-68
2024/01/01 01:15:01;;;;;;;;;;;23.90;99.90;;;;;;5113292;28;19908;-67
2024/01/01 01:17:27;;;;;;;;;;;24.00;99.90;;;;;;5113204;28;20040;-67
2024/01/01 01:19:54;;;;;;;;;;;24.10;99.90;;;;;;5110995;28;19915;-68
2024/01/01 01:22:21;;;;;;;;;;;24.50;99.90;;;;;;5102459;28;19912;-69
2024/01/01 01:24:47;;;;;;;;;;;24.70;99.90;;;;;;5092681;28;19915;-68
2024/01/01 01:27:14;;;;;;;;;;;24.70;99.90;;;;;;5092672;28;19908;-67
2024/01/01 01:29:41;;;;;;;;;;;24.60;99.90;;;;;;5092758;28;19912;-68
2024/01/01 01:32:09;;;;;;;;;;;24.40;99.90;;;;;;5107455;28;19912;-68
2024/01/01 01:34:35;;;;;;;;;;;24.30;99.90;;;;;;5112746;28;19908;-69
2024/01/01 01:37:02;;;;;;;;;;;24.10;99.90;;;;;;5097190;28;19908;-67
2024/01/01 01:39:28;;;;;;;;;;;24.00;99.90;;;;;;5092418;28;19924;-71
2024/01/01 01:41:55;;;;;;;;;;;24.10;99.90;;;;;;5092353;28;19908;-66
2024/01/01 01:44:22;;;;;;;;;;;24.10;99.90;;;;;;5092552;28;20369;-65
2024/01/01 01:46:48;;;;;;;;;;;24.30;99.90;;;;;;5092477;28;19909;-67
2024/01/01 01:49:15;;;;;;;;;;;24.30;99.90;;;;;;5092658;28;19939;-66
2024/01/01 01:51:42;;;;;;;;;;;24.30;99.90;;;;;;5104190;28;19966;-68
2024/01/01 01:54:09;;;;;;;;;;;24.30;99.90;;;;;;5112926;28;20291;-69
2024/01/01 01:56:36;;;;;;;;;;;24.40;99.90;;;;;;5112777;28;19958;-68
2024/01/01 01:59:03;;;;;;;;;;;24.30;99.90;;;;;;5112620;28;20306;-67
2024/01/01 02:01:30;;;;;;;;;;;24.30;99.90;;;;;;5112830;28;19912;-68
2024/01/01 02:03:57;;;;;;;;;;;24.30;99.90;;;;;;5112815;28;19967;-72
2024/01/01 02:06:23;;;;;;;;;;;24.20;99.90;;;;;;5112943;28;19907;-66
2024/01/01 02:08:50;;;;;;;;;;;24.10;99.90;;;;;;5112540;28;20364;-68
2024/01/01 02:11:17;;;;;;;;;;;24.30;99.90;;;;;;5112735;28;19943;-67
2024/01/01 02:13:44;;;;;;;;;;;24.80;99.90;;;;;;5112519;28;19953;-70
2024/01/01 02:16:11;;;;;;;;;;;25.20;99.90;;;;;;5112905;28;19998;-70
2024/01/01 02:18:38;;;;;;;;;;;25.40;99.90;;;;;;5105740;28;19916;-71
2024/01/01 02:21:04;;;;;;;;;;;25.50;99.90;;;;;;5092277;28;19908;-73
2024/01/01 02:23:31;;;;;;;;;;;25.30;99.90;;;;;;5092093;28;19908;-73
2024/01/01 02:25:58;;;;;;;;;;;25.20;99.90;;;;;;5092367;28;19998;-70
2024/01/01 02:28:24;;;;;;;;;;;25.00;99.90;;;;;;5092065;28;19908;-73
2024/01/01 02:30:51;;;;;;;;;;;24.80;99.90;;;;;;5092075;28;19914;-66
2024/01/01 02:33:18;;;;;;;;;;;24.60;99.90;;;;;;5092231;28;19911;-67
2024/01/01 02:35:44;;;;;;;;;;;24.50;99.90;;;;;;5091808;28;19908;-70
2024/01/01 02:38:11;;;;;;;;;;;24.60;99.90;;;;;;5092222;28;19916;-71
2024/01/01 02:40:38;;;;;;;;;;;24.80;99.90;;;;;;5092289;28;20365;-71
2024/01/01 02:43:04;;;;;;;;;;;25.30;99.90;;;;;;5094572;28;19912;-69
2024/01/01 02:45:31;;;;;;;;;;;26.00;99.90;;;;;;5095441;28;20003;-72
2024/01/01 02:47:58;;;;;;;;;;;26.30;99.90;;;;;;5104703;28;19916;-72
2024/01/01 02:50:29;;;;;;;;;;;26.30;99.90;;;;;;5115702;28;20364;-74
2024/01/01 02:52:55;;;;;;;;;;;26.40;99.90;;;;;;5115856;28;20430;-72
2024/01/01 02:55:22;;;;;;;;;;;26.10;99.90;;;;;;5116030;28;20010;-71
2024/01/01 02:57:49;;;;;;;;;;;25.70;99.90;;;;;;5115889;28;19973;-71
2024/01/01 03:00:16;;;;;;;;;;;25.60;99.90;;;;;;5113144;28;19938;-74
2024/01/01 03:02:42;;;;;;;;;;;25.50;99.90;;;;;;5095446;28;20427;-72
2024/01/01 03:05:09;;;;;;;;;;;25.30;99.90;;;;;;5095110;28;20360;-72
2024/01/01 03:07:36;;;;;;;;;;;25.30;99.90;;;;;;5095386;28;19920;-69
2024/01/01 03:10:04;;;;;;;;;;;25.20;99.90;;;;;;5095305;28;19915;-73
2024/01/01 03:12:32;;;;;;;;;;;25.10;99.90;;;;;;5095000;28;19947;-71
2024/01/01 03:14:59;;;;;;;;;;;25.00;99.90;;;;;;5095284;28;20345;-71
2024/01/01 03:17:25;;;;;;;;;;;24.80;99.90;;;;;;5095092;28;19908;-72
2024/01/01 03:19:52;;;;;;;;;;;24.70;99.90;;;;;;5095048;28;20314;-72
2024/01/01 03:22:18;;;;;;;;;;;24.50;99.90;;;;;;5076821;28;19915;-68
2024/01/01 03:24:45;;;;;;;;;;;24.30;99.90;;;;;;5095045;28;20264;-69
2024/01/01 03:27:12;;;;;;;;;;;24.30;99.90;;;;;;5094855;28;19909;-68
2024/01/01 03:29:38;;;;;;;;;;;24.30;99.90;;;;;;5094753;28;20392;-68
2024/01/01 03:32:05;;;;;;;;;;;24.50;99.90;;;;;;5095100;28;19922;-67
2024/01/01 03:34:33;;;;;;;;;;;24.60;99.90;;;;;;5105634;28;19908;-68
2024/01/01 03:36:59;;;;;;;;;;;24.50;99.90;;;;;;5115032;28;19908;-68
2024/01/01 03:39:26;;;;;;;;;;;24.30;99.90;;;;;;5115034;28;19970;-67
2024/01/01 03:41:52;;;;;;;;;;;24.20;99.90;;;;;;5115011;28;20348;-68
2024/01/01 03:44:19;;;;;;;;;;;24.20;99.90;;;;;;5115080;28;20011;-68
2024/01/01 03:46:46;;;;;;;;;;;24.30;99.90;;;;;;5115210;28;19990;-68
2024/01/01 03:49:12;;;;;;;;;;;24.50;99.90;;;;;;5114669;28;20003;-67
2024/01/01 03:51:39;;;;;;;;;;;24.50;99.90;;;;;;5114345;28;19912;-68
2024/01/01 03:54:06;;;;;;;;;;;24.70;99.90;;;;;;5114557;28;19912;-69
2024/01/01 03:56:32;;;;;;;;;;;24.80;99.90;;;;;;5114141;28;19908;-67
2024/01/01 03:58:59;;;;;;;;;;;24.80;99.90;;;;;;5114922;28;19915;-67
2024/01/01 04:01:26;;;;;;;;;;;24.70;99.90;;;;;;5114481;28;20357;-66
2024/01/01 04:03:55;;;;;;;;;;;24.80;99.90;;;;;;5114333;28;19908;-66
2024/01/01 04:06:21;;;;;;;;;;;24.80;99.90;;;;;;5114412;28;19908;-66
2024/01/01 04:08:49;;;;;;;;;;;24.90;99.90;;;;;;5114488;28;20249;-67
2024/01/01 04:11:16;;;;;;;;;;;25.00;99.90;;;;;;5114393;28;19915;-66
2024/01/01 04:13:42;;;;;;;;;;;24.90;99.90;;;;;;5114432;28;19908;-67
2024/01/01 04:16:09;;;;;;;;;;;24.80;99.90;;;;;;5114551;28;19914;-68
2024/01/01 04:18:36;;;;;;;;;;;24.90;99.90;;;;;;5114099;28;19916;-67
2024/01/01 04:21:02;;;;;;;;;;;24.80;99.90;;;;;;5114253;28;19908;-66
2024/01/01 04:23:30;;;;;;;;;;;24.90;99.90;;;;;;5113884;28;19915;-66
2024/01/01 04:25:56;;;;;;;;;;;24.90;99.90;;;;;;5113956;28;19998;-68
2024/01/01 04:28:23;;;;;;;;;;;25.00;99.90;;;;;;5114193;28;19914;-68
2024/01/01 04:30:50;;;;;;;;;;;24.90;99.90;;;;;;5110143;28;19969;-67
2024/01/01 04:33:18;;;;;;;;;;;25.00;99.90;;;;;;5094717;28;19912;-68
2024/01/01 04:35:45;;;;;;;;;;;25.10;99.90;;;;;;5101276;28;20355;-69
2024/01/01 04:38:12;;;;;;;;;;;24.90;99.90;;;;;;5113656;28;19915;-68
2024/01/01 04:40:39;;;;;;;;;;;24.90;99.90;;;;;;5113786;28;19915;-71
2024/01/01 04:43:06;;;;;;;;;;;24.80;99.90;;;;;;5114023;28;19980;-73
2024/01/01 04:45:35;;;;;;;;;;;24.80;99.90;;;;;;5113822;28;19998;-67
2024/01/01 04:48:02;;;;;;;;;;;24.70;99.90;;;;;;5113514;28;19938;-70
2024/01/01 04:50:31;;;;;;;;;;;24.70;99.90;;;;;;5113350;28;19958;-66
2024/01/01 04:52:58;;;;;;;;;;;24.50;99.90;;;;;;5113483;28;20356;-67
2024/01/01 04:55:24;;;;;;;;;;;24.50;99.90;;;;;;5091931;28;20010;-72
2024/01/01 04:57:51;;;;;;;;;;;24.60;99.90;;;;;;5093358;28;20373;-68
2024/01/01 05:00:17;;;;;;;;;;;24.70;99.90;;;;;;5093191;28;20613;-68
2024/01/01 05:02:44;;;;;;;;;;;24.70;99.90;;;;;;5093226;28;19919;-70
2024/01/01 05:05:11;;;;;;;;;;;24.70;99.90;;;;;;5093268;28;20319;-69
2024/01/01 05:07:37;;;;;;;;;;;24.70;99.90;;;;;;5092691;28;19915;-68
2024/01/01 05:10:04;;;;;;;;;;;24.70;99.90;;;;;;5092760;28;19915;-67
2024/01/01 05:12:31;;;;;;;;;;;24.70;99.90;;;;;;5092945;28;20396;-68
2024/01/01 05:14:59;;;;;;;;;;;24.60;99.90;;;;;;5092784;28;19915;-71
2024/01/01 05:17:26;;;;;;;;;;;24.40;99.90;;;;;;5092467;28;19908;-70
2024/01/01 05:19:53;;;;;;;;;;;24.40;99.90;;;;;;5092993;28;19943;-69
2024/01/01 05:22:19;;;;;;;;;;;24.30;99.90;;;;;;5087194;28;19909;-67
2024/01/01 05:24:46;;;;;;;;;;;24.30;99.90;;;;;;5072870;28;19908;-66
2024/01/01 05:27:13;;;;;;;;;;;24.40;99.90;;;;;;5072806;28;19912;-67
2024/01/01 05:29:42;;;;;;;;;;;24.30;99.90;;;;;;5072640;28;20420;-67
2024/01/01 05:32:09;;;;;;;;;;;24.30;99.90;;;;;;5072567;28;19999;-70
2024/01/01 05:34:35;;;;;;;;;;;24.30;99.90;;;;;;5072437;28;19909;-69
2024/01/01 05:37:02;;;;;;;;;;;24.40;99.90;;;;;;5072395;28;19909;-69
2024/01/01 05:39:29;;;;;;;;;;;24.30;99.90;;;;;;5072431;28;19970;-70
2024/01/01 05:41:55;;;;;;;;;;;24.40;99.90;;;;;;5072294;28;19908;-73
2024/01/01 05:44:22;;;;;;;;;;;24.40;99.90;;;;;;5072468;28;19908;-71
2024/01/01 05:46:49;;;;;;;;;;;24.50;99.90;;;;;;5072403;28;20297;-66
2024/01/01 05:49:17;;;;;;;;;;;24.60;99.90;;;;;;5072491;28;19908;-70
2024/01/01 05:51:45;;;;;;;;;;;24.80;99.90;;;;;;5072240;28;19908;-67
2024/01/01 05:54:11;;;;;;;;;;;24.70;99.90;;;;;;5078004;28;20298;-67
2024/01/01 05:56:38;;;;;;;;;;;24.60;99.90;;;;;;5092419;28;19908;-67
2024/01/01 05:59:05;;;;;;;;;;;24.70;99.90;;;;;;5092459;28;19916;-68
2024/01/01 06:01:32;;;;;;;;;;;24.80;99.90;;;;;;5092304;28;20003;-68
2024/01/01 06:03:58;;;;;;;;;;;24.70;99.90;;;;;;5092438;28;19915;-71
2024/01/01 06:06:25;;;;;;;;;;;24.80;99.90;;;;;;5092517;28;20012;-68
2024/01/01 06:08:52;;;;;;;;;;;25.20;99.90;;;;;;5092365;28;19908;-69
2024/01/01 06:11:19;;;;;;;;;;;25.60;99.90;;;;;;5092260;28;19912;-68
2024/01/01 06:13:45;;;;;;;;;;;26.00;99.90;;;;;;5092394;28;19912;-68
2024/01/01 06:16:15;;;;;;;;;;;26.40;99.90;;;;;;5092304;28;19915;-66
2024/01/01 06:18:43;;;;;;;;;;;26.40;99.90;;;;;;5092848;28;19916;-69
2024/01/01 06:21:10;;;;;;;;;;;26.10;99.90;;;;;;5095904;28;19908;-67
2024/01/01 06:23:38;;;;;;;;;;;26.00;99.90;;;;;;5096351;28;19940;-70
2024/01/01 06:26:04;;;;;;;;;;;25.90;99.90;;;;;;5096242;28;19995;-69
2024/01/01 06:28:31;;;;;;;;;;;25.80;99.90;;;;;;5096024;28;20365;-69
2024/01/01 06:30:58;;;;;;;;;;;25.70;99.90;;;;;;5096299;28;19931;-67
2024/01/01 06:33:24;;;;;;;;;;;25.70;99.90;;;;;;5096057;28;19915;-67
2024/01/01 06:35:51;;;;;;;;;;;25.60;99.90;;;;;;5095644;28;19953;-67
2024/01/01 06:38:18;;;;;;;;;;;25.60;99.90;;;;;;5077591;28;20297;-66
2024/01/01 06:40:44;;;;;;;;;;;25.60;99.90;;;;;;5095672;28;19908;-67
2024/01/01 06:43:11;;;;;;;;;;;25.60;99.90;;;;;;5095728;28;20277;-69
2024/01/01 06:45:37;;;;;;;;;;;25.70;99.90;;;;;;5095854;28;19912;-67
2024/01/01 06:48:04;;;;;;;;;;;25.50;99.90;;;;;;5095655;28;19915;-68
2024/01/01 06:50:31;;;;;;;;;;;25.60;99.90;;;;;;5095501;28;19909;-70
2024/01/01 06:52:57;;;;;;;;;;;25.60;99.90;;;;;;5095636;28;20423;-68
2024/01/01 06:55:24;;;;;;;;;;;25.50;99.90;;;;;;5095357;28;19965;-71
2024/01/01 06:57:51;;;;;;;;;;;25.50;99.90;;;;;;5095672;28;19999;-69
2024/01/01 07:00:18;;;;;;;;;;;25.60;99.90;;;;;;5095505;28;19912;-68
2024/01/01 07:02:44;;;;;;;;;;;25.50;99.90;;;;;;5095435;28;19915;-67
2024/01/01 07:05:11;;;;;;;;;;;25.30;99.90;;;;;;5095340;28;19908;-71
2024/01/01 07:07:38;;;;;;;;;;;25.10;99.90;;;;;;5095106;28;19916;-67
2024/01/01 07:10:05;;;;;;;;;;;25.10;99.90;;;;;;5095103;28;19908;-66
2024/01/01 07:12:31;;;;;;;;;;;25.00;99.90;;;;;;5095536;28;19935;-71
2024/01/01 07:14:58;;;;;;;;;;;24.90;99.90;;;;;;5095565;28;19951;-68
2024/01/01 07:17:25;;;;;;;;;;;24.70;99.90;;;;;;5095220;28;19908;-71
2024/01/01 07:19:52;;;;;;;;;;;24.70;99.90;;;;;;5095197;28;20268;-67
2024/01/01 07:22:18;;;;;;;;;;;24.60;99.90;;;;;;5094917;28;19908;-67
2024/01/01 07:24:45;;;;;;;;;;;24.60;99.90;;;;;;5095216;28;19908;-66
2024/01/01 07:27:12;;;;;;;;;;;24.50;99.90;;;;;;5095119;28;19930;-67
2024/01/01 07:29:39;;;;;;;;;;;24.50;99.90;;;;;;5094289;28;19915;-66
2024/01/01 07:32:06;;;;;;;;;;;24.30;99.90;;;;;;5093766;28;20258;-65
2024/01/01 07:34:32;;;;;;;;;;;24.40;99.90;;;;;;5094933;28;19954;-66
2024/01/01 07:37:00;;;;;;;;;;;24.30;99.90;;;;;;5094542;28;19954;-67
2024/01/01 07:39:29;;;;;;;;;;;24.30;99.90;;;;;;5094482;28;19923;-67
2024/01/01 07:41:56;;;;;;;;;;;24.20;99.90;;;;;;5094397;28;20369;-67
2024/01/01 07:44:23;;;;;;;;;;;24.20;99.90;;;;;;5094450;28;19962;-68
2024/01/01 07:46:49;;;;;;;;;;;24.20;99.90;;;;;;5094589;28;19908;-67
2024/01/01 07:49:16;;;;;;;;;;;24.20;99.90;;;;;;5094592;28;19908;-68
2024/01/01 07:51:43;;;;;;;;;;;24.20;99.90;;;;;;5094331;28;20385;-67
2024/01/01 07:54:10;;;;;;;;;;;24.20;99.90;;;;;;5093066;28;19919;-68
2024/01/01 07:56:43;;;;;;;;;;;24.20;99.90;;;;;;5093169;28;19997;-66
2024/01/01 07:59:10;;;;;;;;;;;24.20;99.90;;;;;;5094092;28;19917;-67
2024/01/01 08:01:37;;;;;;;;;;;24.30;99.90;;;;;;5092972;28;19916;-66
2024/01/01 08:04:04;;;;;;;;;;;24.30;99.90;;;;;;5094066;28;19916;-70
2024/01/01 08:06:30;;;;;;;;;;;24.30;99.90;;;;;;5094420;28;20281;-68
2024/01/01 08:08:57;;;;;;;;;;;24.10;99.90;;;;;;5094604;28;19916;-68
2024/01/01 08:11:23;;;;;;;;;;;24.10;99.90;;;;;;5094204;28;20290;-68
2024/01/01 08:13:50;;;;;;;;;;;24.10;99.90;;;;;;5094311;28;20003;-68
2024/01/01 08:16:19;;;;;;;;;;;24.00;99.90;;;;;;5093962;28;19919;-67
2024/01/01 08:18:47;;;;;;;;;;;24.10;99.90;;;;;;5093731;28;19916;-68
2024/01/01 08:21:14;;;;;;;;;;;24.00;99.90;;;;;;5094042;28;19912;-68
2024/01/01 08:23:40;;;;;;;;;;;24.00;99.90;;;;;;5094112;28;19912;-69
2024/01/01 08:26:07;;;;;;;;;;;24.00;99.90;;;;;;5094021;28;20444;-66
2024/01/01 08:28:34;;;;;;;;;;;24.00;99.90;;;;;;5094056;28;19908;-68
2024/01/01 08:31:00;;;;;;;;;;;23.90;99.90;;;;;;5093818;28;19947;-67
2024/01/01 08:33:27;;;;;;;;;;;23.90;99.90;;;;;;5093758;28;19958;-66
2024/01/01 08:35:55;;;;;;;;;;;23.90;99.90;;;;;;5075412;28;20289;-69
2024/01/01 08:38:22;;;;;;;;;;;23.80;99.90;;;;;;5093486;28;19931;-67
2024/01/01 08:40:49;;;;;;;;;;;23.80;99.90;;;;;;5093734;28;20349;-67
2024/01/01 08:43:15;;;;;;;;;;;23.80;99.90;;;;;;5093333;28;19916;-68
2024/01/01 08:45:42;;;;;;;;;;;23.80;99.90;;;;;;5093725;28;20388;-67
2024/01/01 08:48:08;;;;;;;;;;;23.70;99.90;;;;;;5093680;28;19908;-67
2024/01/01 08:50:35;;;;;;;;;;;23.70;99.90;;;;;;5093630;28;19908;-67
2024/01/01 08:53:02;;;;;;;;;;;23.60;99.90;;;;;;5093677;28;20353;-66
2024/01/01 08:55:28;;;;;;;;;;;23.70;99.90;;;;;;5093471;28;19949;-66
2024/01/01 08:57:55;;;;;;;;;;;23.60;99.90;;;;;;5093542;28;19912;-65
2024/01/01 09:00:22;;;;;;;;;;;23.60;99.90;;;;;;5093307;28;19912;-69
2024/01/01 09:02:49;;;;;;;;;;;23.60;99.90;;;;;;5075225;28;20284;-67
2024/01/01 09:05:16;;;;;;;;;;;23.60;99.90;;;;;;5093290;28;19916;-66
2024/01/01 09:07:42;;;;;;;;;;;23.60;99.90;;;;;;5093130;28;19908;-67
2024/01/01 09:10:10;;;;;;;;;;;23.50;99.90;;;;;;5093620;28;19915;-67
2024/01/01 09:12:36;;;;;;;;;;;23.50;99.90;;;;;;5093344;28;20318;-69
2024/01/01 09:15:03;;;;;;;;;;;23.40;99.90;;;;;;5093250;28;19954;-68
2024/01/01 09:17:30;;;;;;;;;;;23.40;99.90;;;;;;5093095;28;19911;-67
2024/01/01 09:19:56;;;;;;;;;;;23.40;99.90;;;;;;5093174;28;20365;-66
2024/01/01 09:22:23;;;;;;;;;;;23.40;99.90;;;;;;5093013;28;20339;-67
2024/01/01 09:24:50;;;;;;;;;;;23.40;99.90;;;;;;5093209;28;19908;-66
2024/01/01 09:27:16;;;;;;;;;;;23.40;99.90;;;;;;5093194;28;20275;-66
2024/01/01 09:29:43;;;;;;;;;;;23.40;99.90;;;;;;5093102;28;20000;-67
2024/01/01 09:32:09;;;;;;;;;;;23.30;99.90;;;;;;5093171;28;19915;-67
2024/01/01 09:34:36;;;;;;;;;;;23.40;99.90;;;;;;5074651;28;20301;-67
2024/01/01 09:37:03;;;;;;;;;;;23.30;99.90;;;;;;5092876;28;19920;-67
2024/01/01 09:39:29;;;;;;;;;;;23.30;99.90;;;;;;5092898;28;19916;-66
2024/01/01 09:41:56;;;;;;;;;;;23.40;99.90;;;;;;5092878;28;20254;-66
2024/01/01 09:44:24;;;;;;;;;;;23.40;99.90;;;;;;5092849;28;19909;-65
2024/01/01 09:46:50;;;;;;;;;;;23.40;99.90;;;;;;5092849;28;19991;-67
2024/01/01 09:49:17;;;;;;;;;;;23.30;99.90;;;;;;5092916;28;19912;-67
2024/01/01 09:51:43;;;;;;;;;;;23.40;99.90;;;;;;5092452;28;19909;-70
2024/01/01 09:54:10;;;;;;;;;;;23.30;99.90;;;;;;5094275;28;19916;-67
2024/01/01 09:56:37;;;;;;;;;;;23.40;99.90;;;;;;5096612;28;19920;-67
2024/01/01 09:59:03;;;;;;;;;;;23.30;99.90;;;;;;5096644;28;19973;-68
2024/01/01 10:01:33;;;;;;;;;;;23.30;99.90;;;;;;5096706;28;19969;-66
2024/01/01 10:04:04;;;;;;;;;;;23.30;99.90;;;;;;5078743;28;19919;-67
2024/01/01 10:06:32;;;;;;;;;;;23.30;99.90;;;;;;5096332;28;19912;-67
2024/01/01 10:09:08;;;;;;;;;;;23.30;99.90;;;;;;5096443;28;20525;-66
2024/01/01 10:11:38;;;;;;;;;;;23.30;99.90;;;;;;5096665;28;19948;-67
2024/01/01 10:14:06;;;;;;;;;;;23.20;99.90;;;;;;5096450;28;20465;-68
2024/01/01 10:16:33;;;;;;;;;;;23.30;99.90;;;;;;5096496;28;20261;-69
2024/01/01 10:19:01;;;;;;;;;;;23.30;99.90;;;;;;5096228;28;19923;-68
2024/01/01 10:21:29;;;;;;;;;;;23.30;99.90;;;;;;5096100;28;19951;-69
2024/01/01 10:23:56;;;;;;;;;;;23.30;99.90;;;;;;5096227;28;20311;-69
2024/01/01 10:26:23;;;;;;;;;;;23.30;99.90;;;;;;5096196;28;19908;-67
2024/01/01 10:28:50;;;;;;;;;;;23.30;99.90;;;;;;5096265;28;20353;-67
2024/01/01 10:31:16;;;;;;;;;;;23.30;99.90;;;;;;5096029;28;20262;-68
2024/01/01 10:33:44;;;;;;;;;;;23.30;99.90;;;;;;5096187;28;19916;-67
2024/01/01 10:36:14;;;;;;;;;;;23.30;99.90;;;;;;5095991;28;19950;-67
2024/01/01 10:38:41;;;;;;;;;;;23.30;99.90;;;;;;5095783;28;20281;-67
2024/01/01 10:41:09;;;;;;;;;;;23.20;99.90;;;;;;5095755;28;19912;-69
2024/01/01 10:43:36;;;;;;;;;;;23.20;99.90;;;;;;5095851;28;19912;-68
2024/01/01 10:46:06;;;;;;;;;;;23.20;99.90;;;;;;5095846;28;19914;-68
2024/01/01 10:48:33;;;;;;;;;;;23.20;99.90;;;;;;5095940;28;19908;-68
2024/01/01 10:51:06;;;;;;;;;;;23.20;99.90;;;;;;5095810;28;19908;-67
2024/01/01 10:53:32;;;;;;;;;;;23.20;99.90;;;;;;5095238;28;20337;-67
2024/01/01 10:56:02;;;;;;;;;;;23.10;99.90;;;;;;5095472;28;19923;-67
2024/01/01 10:58:34;;;;;;;;;;;23.20;99.90;;;;;;5095513;28;20011;-66
2024/01/01 11:01:06;;;;;;;;;;;23.10;99.90;;;;;;5095553;28;19954;-67
2024/01/01 11:03:33;;;;;;;;;;;23.20;99.90;;;;;;5095084;28;20372;-67
2024/01/01 11:06:20;;;;;;;;;;;23.20;99.90;;;;;;5095223;28;19914;-66
2024/01/01 11:08:46;;;;;;;;;;;23.20;99.90;;;;;;5095486;28;19908;-68
2024/01/01 11:11:32;;;;;;;;;;;23.20;99.90;;;;;;5095319;28;20388;-67
2024/01/01 11:14:00;;;;;;;;;;;23.20;99.90;;;;;;5095236;28;19908;-64
2024/01/01 11:16:46;;;;;;;;;;;23.20;99.90;;;;;;5095219;28;20281;-65
2024/01/01 11:19:32;;;;;;;;;;;23.20;99.90;;;;;;5095056;28;19916;-65
2024/01/01 11:21:59;;;;;;;;;;;23.20;99.90;;;;;;5095068;28;19908;-66
2024/01/01 11:24:45;;;;;;;;;;;23.20;99.90;;;;;;5094904;28;19943;-66
2024/01/01 11:27:31;;;;;;;;;;;23.20;99.90;;;;;;5095148;28;19908;-67
2024/01/01 11:30:01;;;;;;;;;;;23.20;99.90;;;;;;5084263;28;19999;-68
2024/01/01 11:32:28;;;;;;;;;;;23.20;99.90;;;;;;5094648;28;19965;-67
2024/01/01 11:35:13;;;;;;;;;;;23.20;99.90;;;;;;5094731;28;19931;-66
2024/01/01 11:37:44;;;;;;;;;;;23.20;99.90;;;;;;5094518;28;19904;-67
2024/01/01 11:40:11;;;;;;;;;;;23.20;99.90;;;;;;5094985;28;19912;-67
2024/01/01 11:42:38;;;;;;;;;;;23.20;99.90;;;;;;5094393;28;19918;-67
2024/01/01 11:45:08;;;;;;;;;;;23.20;99.90;;;;;;5094770;28;20331;-68
2024/01/01 11:47:35;;;;;;;;;;;23.20;99.90;;;;;;5094539;28;19908;-66
2024/01/01 11:50:02;;;;;;;;;;;23.20;99.90;;;;;;5094714;28;20348;-68
2024/01/01 11:52:29;;;;;;;;;;;23.10;99.90;;;;;;5094445;28;19908;-68
2024/01/01 11:54:55;;;;;;;;;;;23.10;99.90;;;;;;5094460;28;19927;-67
2024/01/01 11:57:22;;;;;;;;;;;23.20;99.90;;;;;;5095790;28;19917;-73
2024/01/01 11:59:49;;;;;;;;;;;23.10;99.90;;;;;;5103844;28;19922;-71
2024/01/01 12:02:17;;;;;;;;;;;23.10;99.90;;;;;;5104999;28;19908;-68
2024/01/01 12:04:48;;;;;;;;;;;23.10;99.90;;;;;;5102675;28;19918;-67
2024/01/01 12:07:27;;;;;;;;;;;23.20;99.90;;;;;;5104421;28;20011;-66
2024/01/01 12:10:06;;;;;;;;;;;23.10;99.90;;;;;;5096837;28;19908;-69
2024/01/01 12:12:34;;;;;;;;;;;23.20;99.90;;;;;;5094065;28;20424;-68
2024/01/01 12:15:10;;;;;;;;;;;23.20;99.90;;;;;;5093823;28;19915;-67
2024/01/01 12:17:47;;;;;;;;;;;23.20;99.90;;;;;;5098225;28;19991;-67
2024/01/01 12:20:14;;;;;;;;;;;23.10;99.90;;;;;;5114389;28;19919;-67
2024/01/01 12:22:41;;;;;;;;;;;23.20;99.90;;;;;;5113929;28;19998;-68
2024/01/01 12:25:15;;;;;;;;;;;23.10;99.90;;;;;;5114168;28;19915;-67
2024/01/01 12:27:41;;;;;;;;;;;23.20;99.90;;;;;;5095935;28;19908;-66
2024/01/01 12:30:08;;;;;;;;;;;23.20;99.90;;;;;;5095750;28;19962;-68
2024/01/01 12:32:35;;;;;;;;;;;23.20;99.90;;;;;;5114001;28;20341;-67
2024/01/01 12:35:03;;;;;;;;;;;23.20;99.90;;;;;;5114169;28;19950;-68
2024/01/01 12:37:31;;;;;;;;;;;23.10;99.90;;;;;;5114207;28;19995;-66
2024/01/01 12:39:58;;;;;;;;;;;23.10;99.90;;;;;;5113590;28;19926;-67
2024/01/01 12:42:25;;;;;;;;;;;23.10;99.90;;;;;;5113834;28;20276;-66
2024/01/01 12:44:51;;;;;;;;;;;23.10;99.90;;;;;;5114083;28;19908;-67
2024/01/01 12:47:18;;;;;;;;;;;23.20;99.90;;;;;;5113838;28;19908;-67
2024/01/01 12:49:46;;;;;;;;;;;23.10;99.90;;;;;;5113660;28;19908;-67
2024/01/01 12:52:12;;;;;;;;;;;23.20;99.90;;;;;;5113361;28;20006;-66
2024/01/01 12:54:39;;;;;;;;;;;23.10;99.90;;;;;;5113415;28;19926;-65
2024/01/01 12:57:05;;;;;;;;;;;23.20;99.90;;;;;;5113713;28;19914;-67
2024/01/01 12:59:33;;;;;;;;;;;23.10;99.90;;;;;;5113838;28;19955;-67
2024/01/01 13:01:59;;;;;;;;;;;23.10;99.90;;;;;;5113712;28;19908;-68
2024/01/01 13:04:26;;;;;;;;;;;23.20;99.90;;;;;;5113719;28;19912;-66
2024/01/01 13:06:54;;;;;;;;;;;23.20;99.90;;;;;;5113813;28;19915;-67
2024/01/01 13:09:22;;;;;;;;;;;23.10;99.90;;;;;;5113421;28;19933;-67
2024/01/01 13:11:51;;;;;;;;;;;23.10;99.90;;;;;;5113493;28;19908;-67
2024/01/01 13:14:18;;;;;;;;;;;23.10;99.90;;;;;;5095130;28;19912;-67
2024/01/01 13:16:47;;;;;;;;;;;23.10;99.90;;;;;;5113566;28;19908;-67
2024/01/01 13:19:14;;;;;;;;;;;23.10;99.90;;;;;;5113416;28;20348;-68
2024/01/01 13:21:41;;;;;;;;;;;23.10;99.90;;;;;;5113252;28;19912;-67
2024/01/01 13:24:08;;;;;;;;;;;23.10;99.90;;;;;;5113307;28;19957;-68
2024/01/01 13:26:35;;;;;;;;;;;23.10;99.90;;;;;;5113211;28;19991;-67
2024/01/01 13:29:02;;;;;;;;;;;23.10;99.90;;;;;;5112264;28;20379;-67
2024/01/01 13:31:28;;;;;;;;;;;23.10;99.90;;;;;;5113114;28;19915;-65
2024/01/01 13:33:55;;;;;;;;;;;23.10;99.90;;;;;;5113502;28;19908;-68
2024/01/01 13:36:22;;;;;;;;;;;23.10;99.90;;;;;;5113281;28;19908;-69
2024/01/01 13:38:48;;;;;;;;;;;23.10;99.90;;;;;;5113178;28;19959;-69
2024/01/01 13:41:15;;;;;;;;;;;23.10;99.90;;;;;;5112863;28;19915;-69
2024/01/01 13:43:42;;;;;;;;;;;23.10;99.90;;;;;;5113116;28;19915;-69
2024/01/01 13:46:08;;;;;;;;;;;23.10;99.90;;;;;;5113088;28;19908;-69
2024/01/01 13:48:35;;;;;;;;;;;23.10;99.90;;;;;;5113127;28;19907;-68
2024/01/01 13:51:02;;;;;;;;;;;23.10;99.90;;;;;;5112987;28;19907;-67
2024/01/01 13:53:29;;;;;;;;;;;23.10;99.90;;;;;;5113171;28;19915;-68
2024/01/01 13:55:56;;;;;;;;;;;23.10;99.90;;;;;;5113172;28;19927;-68
2024/01/01 13:58:22;;;;;;;;;;;23.10;99.90;;;;;;5112508;28;19911;-70
2024/01/01 14:00:49;;;;;;;;;;;23.10;99.90;;;;;;5112731;28;19908;-71
2024/01/01 14:03:18;;;;;;;;;;;23.10;99.90;;;;;;5112968;28;19947;-69
2024/01/01 14:05:45;;;;;;;;;;;23.10;99.90;;;;;;5112953;28;20356;-70
2024/01/01 14:08:11;;;;;;;;;;;23.10;99.90;;;;;;5112686;28;19934;-71
2024/01/01 14:10:38;;;;;;;;;;;23.10;99.90;;;;;;5112753;28;19907;-70
2024/01/01 14:13:05;;;;;;;;;;;23.10;99.90;;;;;;5112785;28;20425;-70
2024/01/01 14:15:32;;;;;;;;;;;23.00;99.90;;;;;;5112874;28;19908;-70
2024/01/01 14:17:58;;;;;;;;;;;23.10;99.90;;;;;;5112629;28;20376;-68